Flight Track Log - Related Links

Times and Time Zones

All times are in EDT time to prevent confusion due to time zone crossing. See the ASQ6115 flight status page for this flight to view local times or setup timezone preferences in your user account.

Time Position Orientation Groundspeed Altitude Reporting Facility
EDT Latitude Longitude Course Direction KTS MPH feet Rate Location/Type
Mon 08:23:23 PM 43.0183 -89.3022 163° South 205 236 6,700  Level Chicago Center
Mon 08:24:25 PM 42.9392 -89.2681 162° South 249 287 10,000 2,000 Climbing Chicago Center
Mon 08:25:26 PM 42.8594 -89.2342 163° South 295 339 10,800 1,171 Climbing Chicago Center
Mon 08:26:00 PM 42.8337 -89.2057 166° South  Level FlightAware Approximate
Mon 08:26:28 PM 42.7656 -89.1997 165° South 344 396 12,400  Level Chicago Center
Mon 08:27:00 PM 42.7589 -89.1856 170° South  Level FlightAware Approximate
Mon 08:27:30 PM 42.6783 -89.1961 178° South 315 362 13,000  Level Chicago Center
Mon 08:28:32 PM 42.6006 -89.1917 178° South 283 326 13,000 -484 Level Chicago Center
Mon 08:29:34 PM 42.5222 -89.1875 178° South 281 323 12,000 -976 Descending Chicago Center
Mon 08:30:35 PM 42.4342 -89.1753 174° South 272 313 11,000 -488 Descending Chicago Center
Mon 08:31:37 PM 42.3875 -89.0892 126° Southeast 294 338 11,000  Level Chicago Center
Mon 08:32:39 PM 42.4178 -88.9814 69° East 310 357 11,000 -339 Level Chicago Center
Mon 08:33:41 PM 42.4522 -88.8758 66° East 309 356 10,300 -823 Descending Chicago Center
Mon 08:34:43 PM 42.4647 -88.7681 81° East 306 352 9,300 -634 Descending Chicago Center
Mon 08:35:44 PM 42.4317 -88.6706 115° Southeast 288 331 9,000 -146 Descending Chicago Center
Mon 08:36:46 PM 42.3939 -88.5606 115° Southeast 280 322 9,000  Level Chicago Center
Mon 08:37:48 PM 42.3611 -88.4631 114° Southeast 283 326 9,000 -339 Level Chicago Center
Mon 08:38:50 PM 42.3308 -88.3719 114° Southeast 284 327 8,300 -774 Descending Chicago Center
Mon 08:39:52 PM 42.2975 -88.2786 116° Southeast 280 322 7,400 -634 Descending Chicago Center
Mon 08:40:53 PM 42.2389 -88.2164 142° Southeast 230 265 7,000 -683 Descending Chicago Center
Mon 08:41:55 PM 42.1944 -88.1642 139° Southeast 217 250 6,000 -968 Descending Chicago Center
Mon 08:42:57 PM 42.1558 -88.1217 141° Southeast 191 220 5,000 -919 Descending Chicago Center
Mon 08:43:59 PM 42.1217 -88.0811 139° Southeast 169 194 4,100 -871 Descending Chicago Center

Login

Don't have an account? Register now (free) for customized features, flight alerts, and more!